SUCCESS DAM (SCC)

Elevation: 692' · TULE R basin · Operator: US Army Corps of Engineers

Provisional data, subject to change.
Query executed Wednesday at 18:05:11   clock

Select a sensor type for a plot of data.
Note: Reservoir Flows are daily averages.

Earlier

Date RES ELE    STORAGE    RES CHG    TOC STO    ABV TOC    OUTFLOW    INFLOW    FNF    PPT INC    PPTINC4    TEMP MN    TEMP MX    WINDLEN    EVP PAN   
 FEET   AF   AF   AF   AF   CFS   CFS   CFS   INCHES   INCHES   DEG F   DEG F   MILES   INCHES  
07/25/2016 618.51 27670 -1492 81559 -53889 759 17 17 0.00 0.00 20 41 67 0.33
07/26/2016 616.97 26162 -1508 80819 -54657 781 30 30 0.00 0.00 21 41 60 0.32
07/27/2016 615.32 24607 -1555 80076 -55470 803 29 29 0.01 0.00 24 42 60 0.32
07/28/2016 613.56 23013 -1594 79335 -56322 824 29 29 0.00 0.00 23 43 54 0.31
07/29/2016 611.71 21411 -1602 78602 -57191 836 37 37 0.00 0.00 24 43 57 0.31
07/30/2016 609.79 19823 -1588 77871 -58048 831 39 39 0.00 0.00 23 43 59 0.31
07/31/2016 607.78 18244 -1579 82300 -64056 831 44 44 0.00 0.00 24 40 61 0.31
08/01/2016 605.67 16675 -1569 82300 -65625 828 44 44 0.00 0.00 21 40 67 0.31
08/02/2016 603.61 15230 -- 82300 -- 764 43 43 0.00 0.00 21 40 60 0.30
08/03/2016 601.70 13966 -1264 82300 -68334 670 39 39 0.00 0.00 19 39 54 0.29
08/04/2016 600.12 12975 -991 82300 -69325 539 46 46 0.00 0.00 19 39 53 0.28
08/05/2016 598.77 12167 -808 82300 -70133 440 38 38 0.00 0.00 18 36 62 0.29
08/06/2016 597.93 11682 -485 82300 -70618 268 30 29 0.00 0.00 17 37 54 0.28
08/07/2016 597.57 11479 -203 82300 -70821 110 13 13 0.00 0.00 16 36 64 0.29
08/08/2016 597.11 11222 -257 82300 -71078 133 9 9 0.00 0.00 18 37 62 0.29
08/09/2016 596.61 10948 -274 82300 -71352 142 9 9 0.00 0.00 16 37 59 0.29
08/10/2016 596.10 10672 -276 82300 -71628 140 7 7 0.00 0.00 17 37 62 0.29
08/11/2016 595.72 10471 -201 82300 -71829 103 7 7 0.00 0.00 18 38 58 0.29
08/12/2016 595.40 10303 -168 82300 -71997 87 8 8 0.00 0.00 19 40 52 0.29
08/13/2016 595.12 10157 -146 82300 -72143 73 4 4 0.00 0.00 20 40 55 0.29
08/14/2016 594.87 10029 -128 82300 -72271 69 10 10 0.00 0.00 20 41 62 0.31
08/15/2016 594.61 9896 -133 82300 -72404 65 3 3 0.00 0.00 19 41 60 0.30
08/16/2016 594.36 9770 -126 82300 -72530 64 6 6 0.00 0.00 19 39 56 0.29
08/17/2016 594.06 9620 -150 82300 -72680 70 -0 0 0.00 0.00 21 41 58 0.29
08/18/2016 593.78 9482 -138 82300 -72818 70 4 4 0.00 0.00 20 36 58 0.19
08/19/2016 593.55 9369 -113 82300 -72931 55 3 3 0.02 0.00 19 37 59 0.25
08/20/2016 593.38 9286 -83 82300 -73014 42 5 5 0.00 0.00 21 37 65 0.26
08/21/2016 593.20 9199 -87 82300 -73101 42 2 2 0.01 0.00 19 38 58 0.26
08/22/2016 592.91 9060 -139 82300 -73240 67 1 1 0.00 0.00 18 33 65 0.21
08/23/2016 592.55 8890 -170 82300 -73410 80 -1 0 0.00 0.00 18 37 61 0.26
08/24/2016 -- -- -- -- -- -- -- -- -- 0.00 -- -- -- --

Later | Latest

Warning! This data is preliminary and subject to revision.

Show SCC Map | Plot SCC Data | 1 Month SCC Data | Real-Time SCC Data | SCC Info